Time;durP1;ratioP1;P1;durP2;ratioP2;P2;SDS_P1;SDS_P2;PMS_P1;PMS_P2;Temp;Humidity;BMP_temperature;BMP_pressure;BME280_temperature;BME280_humidity;BME280_pressure;Samples;Min_cycle;Max_cycle;Signal;HPM_P1;HPM_P2
2022/09/27 00:00:35;;;;;;;16.92;11.30;;;10.60;26.50;;;;;;7376500;19;20025;-69
2022/09/27 00:03:05;;;;;;;30.42;18.10;;;10.60;27.70;;;;;;7355979;19;20477;-69
2022/09/27 00:05:38;;;;;;;28.98;16.88;;;10.60;27.40;;;;;;7351939;19;20056;-69
2022/09/27 00:08:08;;;;;;;28.83;18.02;;;10.60;26.90;;;;;;7354323;19;20604;-69
2022/09/27 00:10:38;;;;;;;26.67;15.93;;;10.60;26.50;;;;;;7352904;19;20363;-69
2022/09/27 00:13:08;;;;;;;24.85;15.98;;;10.70;25.20;;;;;;7355396;19;20008;-69
2022/09/27 00:15:38;;;;;;;24.92;16.55;;;10.70;26.00;;;;;;7376442;19;20021;-69
2022/09/27 00:18:08;;;;;;;23.45;14.80;;;10.70;26.70;;;;;;7354387;19;20018;-69
2022/09/27 00:20:40;;;;;;;13.45;8.32;;;10.70;26.50;;;;;;7352098;19;20015;-69
2022/09/27 00:23:10;;;;;;;6.38;4.38;;;10.70;26.20;;;;;;7351732;19;20010;-69
2022/09/27 00:25:40;;;;;;;4.93;3.17;;;10.70;26.20;;;;;;7351697;19;20019;-69
2022/09/27 00:28:11;;;;;;;2.78;1.60;;;10.70;26.70;;;;;;7350963;19;20018;-69
2022/09/27 00:30:43;;;;;;;2.70;1.45;;;10.70;27.70;;;;;;7372874;19;20019;-69
2022/09/27 00:33:13;;;;;;;2.03;0.90;;;10.70;28.20;;;;;;7351731;19;20021;-69
2022/09/27 00:35:46;;;;;;;1.05;0.90;;;10.70;28.20;;;;;;7350548;19;20011;-69
2022/09/27 00:38:16;;;;;;;0.95;0.90;;;10.70;29.30;;;;;;7350196;19;20038;-69
2022/09/27 00:40:47;;;;;;;1.08;0.75;;;10.70;29.30;;;;;;7349802;19;20078;-70
2022/09/27 00:43:20;;;;;;;1.45;0.90;;;10.70;29.40;;;;;;7352769;19;20078;-70
2022/09/27 00:45:54;;;;;;;1.90;1.02;;;10.60;29.40;;;;;;7354294;19;20019;-70
2022/09/27 00:48:29;;;;;;;1.33;0.77;;;10.60;29.30;;;;;;7372636;19;20026;-70
2022/09/27 00:51:05;;;;;;;0.95;0.80;;;10.60;29.30;;;;;;7350230;19;20419;-70
2022/09/27 00:53:40;;;;;;;1.58;0.88;;;10.60;29.10;;;;;;7350761;19;20502;-70
2022/09/27 00:56:14;;;;;;;1.00;0.80;;;10.60;29.40;;;;;;7350737;19;20014;-69
2022/09/27 00:58:48;;;;;;;1.77;0.80;;;10.60;29.30;;;;;;7348827;19;20050;-70
2022/09/27 01:01:19;;;;;;;2.78;1.33;;;10.70;31.20;;;;;;7350895;19;20011;-70
2022/09/27 01:03:57;;;;;;;1.38;0.90;;;10.60;32.10;;;;;;7353473;19;20042;-69
2022/09/27 01:06:29;;;;;;;0.88;0.70;;;10.60;33.30;;;;;;7371114;19;20014;-70
2022/09/27 01:08:59;;;;;;;1.88;0.75;;;10.60;33.30;;;;;;7356539;19;20015;-69
2022/09/27 01:11:41;;;;;;;1.50;0.70;;;10.50;33.20;;;;;;7357352;19;20007;-68
2022/09/27 01:14:39;;;;;;;2.20;1.15;;;10.50;33.20;;;;;;7358443;19;20118;-69
2022/09/27 01:17:24;;;;;;;0.98;0.57;;;10.60;33.30;;;;;;7360051;19;20014;-69
2022/09/27 01:20:21;;;;;;;3.50;0.75;;;10.60;33.40;;;;;;7357481;19;20014;-69
2022/09/27 01:23:09;;;;;;;0.77;0.60;;;10.60;33.30;;;;;;7357703;19;20018;-69
2022/09/27 01:25:56;;;;;;;1.17;0.70;;;10.60;33.30;;;;;;7357418;19;20495;-69
2022/09/27 01:28:41;;;;;;;2.65;0.85;;;10.60;33.50;;;;;;7356986;19;20038;-69
2022/09/27 01:31:24;;;;;;;0.75;0.60;;;10.50;33.30;;;;;;7356793;19;20122;-69
2022/09/27 01:34:03;;;;;;;1.38;0.60;;;10.60;34.80;;;;;;7357115;19;20018;-69
2022/09/27 01:36:44;;;;;;;1.30;0.68;;;10.60;35.10;;;;;;7376888;19;20015;-69
2022/09/27 01:39:28;;;;;;;0.63;0.60;;;10.60;35.40;;;;;;7356878;19;20014;-69
2022/09/27 01:42:04;;;;;;;1.90;0.60;;;10.60;36.20;;;;;;7360812;19;20057;-69
2022/09/27 01:44:40;;;;;;;1.52;0.60;;;10.60;36.40;;;;;;7356285;19;20486;-69
2022/09/27 01:47:18;;;;;;;1.13;0.80;;;10.60;35.70;;;;;;7356677;19;20038;-69
2022/09/27 01:49:53;;;;;;;1.80;0.73;;;10.60;34.60;;;;;;7358363;19;20015;-69
2022/09/27 01:52:28;;;;;;;1.50;0.68;;;10.60;35.50;;;;;;7357407;19;20117;-69
2022/09/27 01:55:02;;;;;;;0.60;0.47;;;10.50;34.80;;;;;;7356058;19;20472;-69
2022/09/27 01:57:38;;;;;;;2.38;0.77;;;10.60;35.40;;;;;;7375302;19;20042;-69
2022/09/27 02:00:10;;;;;;;4.65;0.63;;;10.50;35.60;;;;;;7355065;19;20018;-69
2022/09/27 02:02:47;;;;;;;1.13;0.55;;;10.60;36.70;;;;;;7356708;19;20044;-70
2022/09/27 02:05:20;;;;;;;1.83;0.73;;;10.50;35.60;;;;;;7356246;19;20010;-69
2022/09/27 02:07:55;;;;;;;1.27;0.63;;;10.50;38.20;;;;;;7355110;19;20038;-69
2022/09/27 02:10:29;;;;;;;2.13;0.93;;;10.50;39.70;;;;;;7355765;19;20011;-70
2022/09/27 02:13:04;;;;;;;1.75;0.75;;;10.50;40.70;;;;;;7356264;19;20018;-70
2022/09/27 02:15:37;;;;;;;;;;;10.50;41.80;;;;;;7380345;19;20018;-69
2022/09/27 02:18:17;;;;;;;1.52;0.68;;;10.40;42.40;;;;;;7358190;19;19919;-69
2022/09/27 02:20:52;;;;;;;1.05;0.65;;;10.40;43.50;;;;;;7355037;19;20014;-69
2022/09/27 02:23:26;;;;;;;1.25;0.70;;;10.40;44.40;;;;;;7356126;19;20013;-69
2022/09/27 02:25:59;;;;;;;1.60;0.80;;;10.40;44.70;;;;;;7355546;19;20010;-69
2022/09/27 02:28:33;;;;;;;3.35;0.80;;;10.30;45.10;;;;;;7355663;19;20745;-69
2022/09/27 02:31:03;;;;;;;3.15;0.80;;;10.30;44.50;;;;;;7355527;19;20026;-68
2022/09/27 02:33:40;;;;;;;1.15;0.57;;;10.30;43.00;;;;;;7377148;19;20034;-69
2022/09/27 02:36:10;;;;;;;1.63;0.70;;;10.20;42.30;;;;;;7357788;19;20021;-69
2022/09/27 02:38:42;;;;;;;5.05;0.90;;;10.20;41.60;;;;;;7355617;19;20014;-69
2022/09/27 02:41:16;;;;;;;1.58;0.70;;;10.10;42.50;;;;;;7358977;19;20490;-69
2022/09/27 02:43:49;;;;;;;1.40;0.70;;;10.10;43.50;;;;;;7355183;19;20014;-69
2022/09/27 02:46:37;;;;;;;3.13;0.80;;;10.10;44.00;;;;;;7355859;19;20019;-70
2022/09/27 02:49:22;;;;;;;5.90;0.80;;;10.00;41.30;;;;;;7356886;19;20023;-69
2022/09/27 02:52:03;;;;;;;0.80;0.68;;;10.00;41.20;;;;;;7354968;19;20042;-69
2022/09/27 02:54:49;;;;;;;2.13;0.70;;;10.00;41.20;;;;;;7376182;19;20511;-69
2022/09/27 02:57:31;;;;;;;2.60;0.80;;;9.90;41.10;;;;;;7351989;19;20010;-69
2022/09/27 03:00:07;;;;;;;3.40;1.02;;;9.90;36.00;;;;;;7351345;19;20015;-69
2022/09/27 03:02:47;;;;;;;4.63;1.20;;;9.80;33.90;;;;;;7354424;19;20014;-69
2022/09/27 03:05:22;;;;;;;3.58;1.08;;;9.80;34.80;;;;;;7354395;19;20768;-69
2022/09/27 03:07:52;;;;;;;4.78;1.20;;;9.70;35.60;;;;;;7352844;19;20018;-69
2022/09/27 03:10:24;;;;;;;3.60;1.20;;;9.70;35.40;;;;;;7353234;19;20038;-69
2022/09/27 03:12:54;;;;;;;3.92;1.40;;;9.70;36.30;;;;;;7353515;19;20750;-69
2022/09/27 03:15:24;;;;;;;5.05;1.48;;;9.60;34.40;;;;;;7377718;19;20003;-69
2022/09/27 03:17:54;;;;;;;5.55;1.48;;;9.60;34.10;;;;;;7356753;19;20010;-69
2022/09/27 03:20:27;;;;;;;4.65;1.55;;;9.60;34.50;;;;;;7352473;19;20010;-69
2022/09/27 03:22:57;;;;;;;6.72;1.60;;;9.70;35.20;;;;;;7354676;19;20062;-69
2022/09/27 03:25:27;;;;;;;4.45;1.42;;;9.70;35.10;;;;;;7354022;19;20010;-69
2022/09/27 03:27:57;;;;;;;6.72;2.10;;;9.70;35.90;;;;;;7351400;19;20018;-69
2022/09/27 03:30:27;;;;;;;5.03;1.65;;;9.70;35.20;;;;;;7373330;19;20019;-69
2022/09/27 03:32:57;;;;;;;4.75;1.83;;;9.70;35.20;;;;;;7356927;19;20014;-69
2022/09/27 03:35:30;;;;;;;4.20;2.00;;;9.70;35.10;;;;;;7353291;19;20015;-69
2022/09/27 03:38:00;;;;;;;5.03;2.30;;;9.70;34.70;;;;;;7353412;19;20025;-69
2022/09/27 03:40:30;;;;;;;5.70;2.10;;;9.70;36.20;;;;;;7354542;19;20038;-69
2022/09/27 03:43:00;;;;;;;3.95;2.00;;;9.70;36.30;;;;;;7356234;19;20296;-69
2022/09/27 03:45:30;;;;;;;5.95;2.17;;;9.70;35.20;;;;;;7374254;19;20527;-69
2022/09/27 03:48:00;;;;;;;4.38;2.10;;;9.80;35.30;;;;;;7352090;19;20054;-69
2022/09/27 03:50:33;;;;;;;4.65;2.13;;;9.80;35.80;;;;;;7352214;19;20015;-69
2022/09/27 03:53:03;;;;;;;4.60;2.13;;;9.80;35.80;;;;;;7353451;19;20006;-69
2022/09/27 03:55:33;;;;;;;7.95;2.20;;;9.80;35.00;;;;;;7352819;19;20018;-69
2022/09/27 03:58:03;;;;;;;7.00;2.47;;;9.80;34.70;;;;;;7350581;19;20014;-69
2022/09/27 04:00:33;;;;;;;7.72;2.53;;;9.80;33.50;;;;;;7371923;19;20043;-69
2022/09/27 04:03:03;;;;;;;5.50;2.30;;;9.90;31.30;;;;;;7352579;19;20018;-69
2022/09/27 04:05:36;;;;;;;5.40;2.53;;;9.90;32.00;;;;;;7352870;19;20010;-69
2022/09/27 04:08:06;;;;;;;8.73;2.83;;;10.00;31.70;;;;;;7350772;19;20078;-69
2022/09/27 04:10:36;;;;;;;9.57;2.78;;;10.00;30.90;;;;;;7351799;19;20038;-69
2022/09/27 04:13:09;;;;;;;8.60;2.03;;;9.90;31.10;;;;;;7352609;19;21486;-68
2022/09/27 04:15:39;;;;;;;7.10;2.50;;;9.90;30.40;;;;;;7376491;19;20006;-68
2022/09/27 04:18:09;;;;;;;7.32;2.53;;;9.90;31.10;;;;;;7355546;19;20471;-68
2022/09/27 04:20:41;;;;;;;5.55;1.92;;;9.90;31.80;;;;;;7351124;19;20010;-68
2022/09/27 04:23:11;;;;;;;9.18;2.67;;;9.80;31.60;;;;;;7352165;19;20015;-68
2022/09/27 04:25:41;;;;;;;7.22;2.78;;;9.80;32.80;;;;;;7351869;19;20033;-69
2022/09/27 04:28:11;;;;;;;5.85;1.88;;;9.80;32.60;;;;;;7353273;19;20418;-68
2022/09/27 04:30:41;;;;;;;6.60;2.25;;;9.80;33.60;;;;;;7376525;19;20010;-68
2022/09/27 04:33:11;;;;;;;4.82;2.38;;;9.80;33.50;;;;;;7350955;19;20014;-69
2022/09/27 04:38:26;;;;;;;7.70;2.33;;;9.80;32.50;;;;;;7351203;19;20011;-70
2022/09/27 04:40:56;;;;;;;5.63;2.72;;;9.80;31.50;;;;;;7354045;19;20066;-67
2022/09/27 04:43:26;;;;;;;6.50;2.13;;;9.80;33.50;;;;;;7361379;19;20109;-68
2022/09/27 04:45:56;;;;;;;8.45;2.50;;;9.80;32.50;;;;;;7361755;19;20271;-68
2022/09/27 04:48:26;;;;;;;7.57;2.42;;;9.90;33.50;;;;;;7383829;19;20060;-69
2022/09/27 04:51:03;;;;;;;6.10;2.45;;;9.80;32.30;;;;;;7361106;19;20765;-68
2022/09/27 04:53:33;;;;;;;6.35;2.17;;;9.90;31.10;;;;;;7361735;19;20485;-68
2022/09/27 04:56:05;;;;;;;6.15;2.40;;;9.90;31.00;;;;;;7361092;19;20038;-68
2022/09/27 04:58:36;;;;;;;6.53;2.10;;;9.80;33.40;;;;;;7361215;19;20024;-68
2022/09/27 05:01:08;;;;;;;6.78;2.15;;;9.80;34.90;;;;;;7359221;19;20019;-68
2022/09/27 05:03:38;;;;;;;6.43;2.67;;;9.80;34.20;;;;;;7380375;19;20017;-68
2022/09/27 05:06:11;;;;;;;5.55;2.08;;;9.80;35.40;;;;;;7356541;19;20515;-68
2022/09/27 05:08:41;;;;;;;4.93;2.13;;;9.80;34.70;;;;;;7357134;19;20021;-69
2022/09/27 05:11:11;;;;;;;4.68;1.88;;;9.90;34.00;;;;;;7357679;19;20034;-68
2022/09/27 05:13:40;;;;;;;6.00;1.52;;;9.90;32.00;;;;;;7357814;19;20753;-68
2022/09/27 05:16:11;;;;;;;4.90;1.70;;;9.90;30.80;;;;;;7359728;19;20037;-69
2022/09/27 05:18:42;;;;;;;4.10;1.20;;;9.90;30.80;;;;;;7381207;19;20462;-68
2022/09/27 05:21:14;;;;;;;3.47;1.73;;;9.90;29.50;;;;;;7354206;19;20301;-69
2022/09/27 05:23:44;;;;;;;3.45;1.95;;;9.90;31.00;;;;;;7358020;19;20466;-68
2022/09/27 05:26:16;;;;;;;4.28;1.60;;;9.90;32.10;;;;;;7360181;19;20015;-68
2022/09/27 05:28:47;;;;;;;2.95;1.05;;;9.80;34.00;;;;;;7355944;19;20010;-70
2022/09/27 05:31:16;;;;;;;4.07;1.30;;;9.80;33.70;;;;;;7357903;19;20421;-69
2022/09/27 05:33:46;;;;;;;7.57;1.77;;;9.80;34.30;;;;;;7382370;19;20018;-68
2022/09/27 05:36:19;;;;;;;2.28;1.40;;;9.80;35.00;;;;;;7356307;19;20058;-67
2022/09/27 05:38:49;;;;;;;3.67;1.52;;;9.80;34.80;;;;;;7358376;19;20030;-69
2022/09/27 05:41:19;;;;;;;2.55;1.48;;;9.80;33.60;;;;;;7357094;19;20810;-67
2022/09/27 05:43:49;;;;;;;2.20;1.30;;;9.80;34.70;;;;;;7355607;19;20614;-68
2022/09/27 05:46:19;;;;;;;2.33;1.80;;;9.70;32.90;;;;;;7357279;19;20025;-69
2022/09/27 05:48:48;;;;;;;6.45;1.45;;;9.70;34.10;;;;;;7363676;19;20018;-68
2022/09/27 05:51:21;;;;;;;2.83;1.30;;;9.70;33.20;;;;;;7380940;19;20405;-69
2022/09/27 05:53:51;;;;;;;2.85;1.48;;;9.70;30.70;;;;;;7354792;19;20018;-69
2022/09/27 05:56:21;;;;;;;2.30;1.50;;;9.70;30.40;;;;;;7358451;19;20307;-69
2022/09/27 05:58:51;;;;;;;6.63;1.60;;;9.70;30.30;;;;;;7358112;19;20011;-68
2022/09/27 06:01:21;;;;;;;2.60;1.80;;;9.70;29.40;;;;;;7354494;19;20022;-69
2022/09/27 06:03:52;;;;;;;3.35;1.60;;;9.80;29.40;;;;;;7355535;19;20377;-69
2022/09/27 06:06:24;;;;;;;2.75;1.60;;;9.70;28.60;;;;;;7378721;19;20778;-69
2022/09/27 06:08:54;;;;;;;4.38;1.80;;;9.70;29.40;;;;;;7357765;19;20375;-69
2022/09/27 06:11:26;;;;;;;3.63;1.73;;;9.80;29.90;;;;;;7358165;19;20017;-69
2022/09/27 06:13:56;;;;;;;2.92;1.65;;;9.80;28.90;;;;;;7357521;19;20025;-69
2022/09/27 06:16:26;;;;;;;2.45;1.55;;;9.80;29.00;;;;;;7356784;19;20010;-68
2022/09/27 06:18:56;;;;;;;2.60;1.80;;;9.90;29.00;;;;;;7358154;19;20018;-69
2022/09/27 06:21:30;;;;;;;3.88;1.77;;;9.90;27.80;;;;;;7377006;19;20014;-68
2022/09/27 06:24:01;;;;;;;5.00;2.22;;;9.80;28.90;;;;;;7354277;19;20768;-68
2022/09/27 06:26:32;;;;;;;10.60;2.28;;;9.90;29.60;;;;;;7354268;19;20027;-68
2022/09/27 06:29:03;;;;;;;2.92;1.77;;;9.90;28.90;;;;;;7357486;19;20430;-68
2022/09/27 06:31:33;;;;;;;5.43;2.00;;;9.90;27.80;;;;;;7354854;19;20022;-68
2022/09/27 06:34:03;;;;;;;3.63;2.47;;;9.90;29.50;;;;;;7354665;19;20022;-68
2022/09/27 06:36:35;;;;;;;5.90;1.77;;;10.00;28.40;;;;;;7374371;19;20022;-68
2022/09/27 06:39:06;;;;;;;4.78;1.95;;;9.90;28.90;;;;;;7353403;19;20022;-68
2022/09/27 06:41:36;;;;;;;3.80;1.85;;;10.00;27.40;;;;;;7353470;19;20023;-68
2022/09/27 06:44:06;;;;;;;1.67;1.17;;;10.10;27.80;;;;;;7354398;19;20018;-68
2022/09/27 06:46:37;;;;;;;2.63;1.40;;;10.00;26.10;;;;;;7353189;19;20054;-69
2022/09/27 06:49:07;;;;;;;3.47;1.35;;;10.00;27.40;;;;;;7355957;19;20051;-68
2022/09/27 06:51:39;;;;;;;3.58;1.20;;;10.10;27.20;;;;;;7375360;19;20034;-68
2022/09/27 06:54:09;;;;;;;2.42;0.98;;;9.90;24.60;;;;;;7356005;19;20018;-68
2022/09/27 06:56:39;;;;;;;2.08;0.90;;;9.80;24.50;;;;;;7354276;19;20049;-69
2022/09/27 07:01:52;;;;;;;2.17;1.00;;;9.90;25.50;;;;;;7356845;19;20114;-68
2022/09/27 07:04:22;;;;;;;1.42;0.90;;;9.80;24.90;;;;;;7355860;19;20412;-69
2022/09/27 07:06:55;;;;;;;7.03;3.80;;;9.80;25.50;;;;;;7351660;19;20014;-69
2022/09/27 07:09:25;;;;;;;2.60;1.65;;;9.70;24.80;;;;;;7377461;19;20025;-69
2022/09/27 07:11:56;;;;;;;0.80;0.63;;;9.80;27.00;;;;;;7356413;19;20018;-68
2022/09/27 07:14:26;;;;;;;1.40;0.70;;;9.50;26.40;;;;;;7356403;19;20494;-68
2022/09/27 07:16:56;;;;;;;1.95;0.80;;;9.50;26.30;;;;;;7353912;19;20014;-68
2022/09/27 07:19:26;;;;;;;1.73;0.98;;;9.60;26.70;;;;;;7356102;19;20021;-68
2022/09/27 07:21:58;;;;;;;2.78;1.58;;;9.50;25.90;;;;;;7355220;19;20064;-68
2022/09/27 07:24:28;;;;;;;1.25;0.65;;;9.80;27.40;;;;;;7376942;19;20493;-69
2022/09/27 07:26:58;;;;;;;1.15;0.60;;;9.80;25.60;;;;;;7336307;19;20018;-69
2022/09/27 07:29:28;;;;;;;3.08;0.60;;;9.70;25.40;;;;;;7348896;19;20038;-69
2022/09/27 07:31:58;;;;;;;1.02;0.60;;;9.70;27.80;;;;;;7351686;19;20218;-69
2022/09/27 07:34:28;;;;;;;1.50;0.70;;;9.70;26.20;;;;;;7352389;19;20010;-69
2022/09/27 07:37:04;;;;;;;0.80;0.43;;;9.90;28.00;;;;;;7345897;19;20735;-68
2022/09/27 07:39:34;;;;;;;1.92;0.50;;;9.70;25.50;;;;;;7372972;19;20022;-68
2022/09/27 07:42:05;;;;;;;1.35;0.70;;;9.70;27.00;;;;;;7350250;19;20030;-69
2022/09/27 07:44:35;;;;;;;1.90;0.77;;;9.80;29.40;;;;;;7351935;19;20350;-69
2022/09/27 07:47:08;;;;;;;2.08;0.80;;;9.80;28.50;;;;;;7346192;19;20010;-69
2022/09/27 07:49:38;;;;;;;2.30;0.93;;;9.80;29.50;;;;;;7350805;19;20097;-69
2022/09/27 07:52:10;;;;;;;2.28;1.00;;;9.90;28.70;;;;;;7352406;19;20030;-69
2022/09/27 07:54:40;;;;;;;1.80;1.33;;;9.90;26.00;;;;;;7374191;19;20482;-69
2022/09/27 07:57:10;;;;;;;2.67;1.35;;;10.10;26.60;;;;;;7353447;19;20013;-69
2022/09/27 07:59:40;;;;;;;1.30;0.95;;;10.10;24.00;;;;;;7358907;19;20011;-69
2022/09/27 08:02:15;;;;;;;2.13;1.10;;;10.10;23.10;;;;;;7362106;19;20012;-69
2022/09/27 08:04:45;;;;;;;1.30;1.10;;;10.40;24.40;;;;;;7360896;19;20475;-69
2022/09/27 08:07:18;;;;;;;3.63;1.40;;;10.50;23.30;;;;;;7351277;19;20014;-69
2022/09/27 08:09:48;;;;;;;3.35;1.27;;;11.00;21.20;;;;;;7368533;19;20039;-69
2022/09/27 08:12:20;;;;;;;2.67;1.50;;;11.00;16.90;;;;;;7380125;19;20018;-68
2022/09/27 08:14:51;;;;;;;3.22;1.00;;;10.80;15.60;;;;;;7359485;19;20019;-68
2022/09/27 08:17:21;;;;;;;2.45;1.23;;;10.90;15.60;;;;;;7349094;19;20025;-68
2022/09/27 08:19:51;;;;;;;2.88;1.30;;;10.80;15.60;;;;;;7359171;19;20029;-68
2022/09/27 08:22:23;;;;;;;4.00;1.20;;;10.70;14.20;;;;;;7359762;19;20018;-68
2022/09/27 08:24:53;;;;;;;2.15;1.25;;;10.60;15.50;;;;;;7358577;19;20019;-68
2022/09/27 08:27:23;;;;;;;2.50;1.25;;;10.50;15.40;;;;;;7369804;19;20383;-68
2022/09/27 08:29:53;;;;;;;1.23;1.00;;;10.80;15.10;;;;;;7358002;19;20044;-68
2022/09/27 08:32:23;;;;;;;2.05;1.30;;;10.80;14.60;;;;;;7360072;19;20501;-68
2022/09/27 08:34:53;;;;;;;1.10;1.00;;;10.90;11.90;;;;;;7359866;19;20018;-69
2022/09/27 08:37:25;;;;;;;1.98;1.05;;;10.90;10.10;;;;;;7352843;19;20014;-69
2022/09/27 08:39:55;;;;;;;3.40;1.08;;;10.80;11.00;;;;;;7358115;19;20458;-68
2022/09/27 08:42:33;;;;;;;2.28;1.00;;;11.20;8.60;;;;;;7379920;19;20043;-69
2022/09/27 08:45:10;;;;;;;2.60;0.90;;;11.40;5.80;;;;;;7361252;19;20030;-69
2022/09/27 08:47:42;;;;;;;2.95;0.80;;;11.50;3.40;;;;;;7349450;19;20391;-69
2022/09/27 08:50:25;;;;;;;2.83;1.15;;;11.40;1.00;;;;;;7357856;19;20022;-69
2022/09/27 08:53:04;;;;;;;1.77;1.30;;;11.20;1.10;;;;;;7359935;19;20007;-68
2022/09/27 08:55:37;;;;;;;3.55;1.92;;;11.10;4.70;;;;;;7358903;19;20006;-68
2022/09/27 08:58:16;;;;;;;3.22;1.20;;;11.10;3.60;;;;;;7351203;19;20337;-68
2022/09/27 09:00:46;;;;;;;2.28;1.38;;;10.80;2.00;;;;;;7379996;19;20022;-69
2022/09/27 09:03:20;;;;;;;3.05;1.40;;;10.80;2.10;;;;;;7357874;19;20014;-68
2022/09/27 09:05:59;;;;;;;2.75;1.50;;;10.90;6.40;;;;;;7356360;19;20014;-69
2022/09/27 09:08:40;;;;;;;3.13;1.50;;;10.70;7.80;;;;;;7351448;19;20027;-68
2022/09/27 09:14:39;;;;;;;3.97;1.77;;;10.80;7.20;;;;;;7355853;19;20007;-68
2022/09/27 09:17:19;;;;;;;4.03;1.42;;;11.10;7.20;;;;;;7352124;19;20026;-68
2022/09/27 09:20:13;;;;;;;2.78;1.25;;;11.20;6.40;;;;;;7357224;19;20046;-69
2022/09/27 09:23:12;;;;;;;6.38;1.30;;;10.80;1.90;;;;;;7358728;19;20009;-69
2022/09/27 09:25:58;;;;;;;3.78;1.55;;;11.00;4.70;;;;;;7359392;19;20078;-69
2022/09/27 09:28:41;;;;;;;3.22;1.40;;;11.30;2.20;;;;;;7352030;19;20011;-69
2022/09/27 09:31:22;;;;;;;3.33;1.23;;;11.50;1.30;;;;;;7364076;19;20896;-69
2022/09/27 09:33:56;;;;;;;3.97;1.70;;;11.50;1.00;;;;;;7366243;19;20023;-69
2022/09/27 09:36:31;;;;;;;2.83;1.38;;;11.70;1.00;;;;;;7381020;19;20417;-69
2022/09/27 09:39:06;;;;;;;2.60;1.40;;;12.10;1.00;;;;;;7365450;19;20042;-69
2022/09/27 09:41:43;;;;;;;3.75;1.38;;;12.10;1.00;;;;;;7363630;19;20023;-69
2022/09/27 09:44:20;;;;;;;1.90;1.20;;;12.10;1.00;;;;;;7365567;19;20030;-68
2022/09/27 09:46:54;;;;;;;5.35;1.40;;;12.30;1.00;;;;;;7354213;19;20006;-69
2022/09/27 09:49:29;;;;;;;2.80;1.42;;;12.30;1.00;;;;;;7365403;19;20010;-68
2022/09/27 09:52:01;;;;;;;;;;;12.50;1.00;;;;;;7364850;19;20022;-68
2022/09/27 09:54:44;;;;;;;1.33;1.00;;;12.60;1.00;;;;;;7387579;19;19925;-68
2022/09/27 09:57:20;;;;;;;2.60;1.13;;;12.70;1.00;;;;;;7352776;19;20011;-68
2022/09/27 09:59:54;;;;;;;0.98;0.80;;;12.70;1.00;;;;;;7363577;19;20075;-68
2022/09/27 10:02:31;;;;;;;1.85;1.40;;;12.60;1.00;;;;;;7364748;19;20014;-68
2022/09/27 10:05:02;;;;;;;3.03;1.63;;;13.00;1.00;;;;;;7362861;19;20035;-68
2022/09/27 10:07:39;;;;;;;3.83;1.67;;;12.80;1.00;;;;;;7354061;19;20014;-68
2022/09/27 10:10:15;;;;;;;3.88;2.08;;;12.60;1.00;;;;;;7365294;19;20019;-69
2022/09/27 10:12:48;;;;;;;3.90;2.00;;;12.60;1.00;;;;;;7386613;19;20033;-69
2022/09/27 10:15:20;;;;;;;2.88;1.65;;;12.40;1.00;;;;;;7365677;19;20007;-68
2022/09/27 10:18:17;;;;;;;2.78;1.48;;;12.80;1.00;;;;;;7356884;19;20018;-68
2022/09/27 10:20:54;;;;;;;5.97;1.80;;;12.80;1.00;;;;;;7364459;19;20010;-69
2022/09/27 10:23:25;;;;;;;2.88;1.65;;;12.70;1.00;;;;;;7364189;19;20010;-68
2022/09/27 10:25:57;;;;;;;6.90;1.65;;;12.50;1.00;;;;;;7363536;19;20022;-68
2022/09/27 10:28:36;;;;;;;4.10;1.50;;;12.60;1.00;;;;;;7355582;19;20015;-68
2022/09/27 10:31:09;;;;;;;4.20;1.52;;;13.20;1.00;;;;;;7364633;19;20018;-68
2022/09/27 10:33:52;;;;;;;5.28;1.83;;;13.30;1.00;;;;;;7385046;19;20093;-68
2022/09/27 10:36:28;;;;;;;3.42;1.60;;;12.80;1.00;;;;;;7361403;19;20111;-68
2022/09/27 10:38:59;;;;;;;5.20;1.48;;;12.60;1.00;;;;;;7362879;19;20014;-68
2022/09/27 10:41:35;;;;;;;1.80;1.20;;;12.60;1.00;;;;;;7362818;19;20078;-68
2022/09/27 10:44:26;;;;;;;3.88;1.40;;;12.50;1.00;;;;;;7363008;19;20012;-68
2022/09/27 10:46:59;;;;;;;3.80;1.45;;;12.30;1.00;;;;;;7352995;19;20042;-68
2022/09/27 10:49:33;;;;;;;5.70;1.77;;;12.10;1.00;;;;;;7364443;19;20017;-69
2022/09/27 10:52:05;;;;;;;4.35;1.45;;;12.00;1.00;;;;;;7364586;19;20015;-68
2022/09/27 10:54:37;;;;;;;4.50;1.85;;;11.90;1.00;;;;;;7385520;19;20014;-68
2022/09/27 10:57:21;;;;;;;3.13;1.40;;;11.90;1.00;;;;;;7351233;19;20007;-68
2022/09/27 10:59:56;;;;;;;3.70;1.50;;;11.60;1.00;;;;;;7362291;19;20006;-69
2022/09/27 11:02:31;;;;;;;5.00;1.60;;;11.50;1.00;;;;;;7363203;19;20006;-69
2022/09/27 11:05:08;;;;;;;2.95;1.38;;;11.60;1.00;;;;;;7363132;19;20101;-69
2022/09/27 11:07:52;;;;;;;3.53;1.80;;;11.60;1.00;;;;;;7350500;19;20040;-68
2022/09/27 11:10:27;;;;;;;3.03;1.60;;;11.90;1.00;;;;;;7361750;19;20011;-69
2022/09/27 11:13:14;;;;;;;6.03;2.10;;;11.80;1.00;;;;;;7361636;19;20010;-67
2022/09/27 11:15:58;;;;;;;5.13;1.77;;;11.50;1.50;;;;;;7384090;19;20031;-69
2022/09/27 11:18:35;;;;;;;6.00;2.00;;;11.10;4.80;;;;;;7350365;19;20011;-69
2022/09/27 11:21:20;;;;;;;2.75;1.63;;;10.70;15.40;;;;;;7361236;19;20034;-69
2022/09/27 11:24:05;;;;;;;2.28;2.08;;;10.50;18.10;;;;;;7360183;19;20367;-69
2022/09/27 11:26:49;;;;;;;4.70;2.55;;;10.50;22.40;;;;;;7352116;19;20014;-69
2022/09/27 11:29:30;;;;;;;4.93;2.45;;;10.50;24.80;;;;;;7360931;19;20087;-69
2022/09/27 11:32:15;;;;;;;8.38;2.60;;;10.40;25.80;;;;;;7363171;19;20017;-69
2022/09/27 11:35:02;;;;;;;5.20;2.60;;;10.40;26.10;;;;;;7362065;19;20024;-69
2022/09/27 11:37:40;;;;;;;4.13;2.20;;;10.60;28.90;;;;;;7348902;19;20030;-69
2022/09/27 11:40:20;;;;;;;4.63;2.50;;;10.60;26.10;;;;;;7361743;19;20413;-68
2022/09/27 11:43:25;;;;;;;7.20;3.30;;;10.40;30.60;;;;;;7359312;19;20820;-68
2022/09/27 11:46:03;;;;;;;5.75;2.75;;;10.20;34.30;;;;;;7359412;19;20038;-69
2022/09/27 11:49:15;;;;;;;3.90;2.00;;;10.00;37.00;;;;;;7357608;19;20417;-69
2022/09/27 11:52:06;;;;;;;4.78;1.60;;;9.20;36.00;;;;;;7384855;19;20018;-70
2022/09/27 11:54:48;;;;;;;3.67;1.77;;;8.90;42.50;;;;;;7357663;19;20094;-69
2022/09/27 11:57:25;;;;;;;3.30;1.42;;;8.70;45.60;;;;;;7345685;19;20018;-70
2022/09/27 12:00:16;;;;;;;4.82;1.52;;;8.50;45.10;;;;;;7359159;19;20010;-70
2022/09/27 12:03:31;;;;;;;3.75;1.50;;;8.50;42.40;;;;;;7360925;19;20011;-71
2022/09/27 12:06:17;;;;;;;5.80;1.25;;;8.60;42.50;;;;;;7360731;19;20038;-71
2022/09/27 12:09:04;;;;;;;1.60;1.08;;;8.50;41.00;;;;;;7353481;19;20553;-71
2022/09/27 12:11:40;;;;;;;1.27;0.90;;;8.50;40.90;;;;;;7359700;19;20014;-70
2022/09/27 12:14:18;;;;;;;3.00;1.10;;;8.70;41.20;;;;;;7361577;19;20390;-71
2022/09/27 12:16:51;;;;;;;2.15;1.17;;;8.80;39.80;;;;;;7350217;19;20011;-69
2022/09/27 12:19:25;;;;;;;2.67;1.08;;;9.10;41.50;;;;;;7360543;19;20039;-69
2022/09/27 12:22:03;;;;;;;1.58;0.80;;;9.20;36.30;;;;;;7358353;19;20019;-69
2022/09/27 12:24:34;;;;;;;2.00;0.90;;;9.20;33.10;;;;;;7380902;19;20422;-70
2022/09/27 12:27:10;;;;;;;2.60;0.82;;;9.20;33.00;;;;;;7349208;19;20033;-69
2022/09/27 12:29:44;;;;;;;3.17;0.80;;;9.10;34.90;;;;;;7359518;19;20006;-70
2022/09/27 12:32:19;;;;;;;1.75;0.85;;;9.30;38.30;;;;;;7360474;19;20018;-70
2022/09/27 12:34:57;;;;;;;1.85;0.90;;;9.10;35.60;;;;;;7361372;19;20027;-71
2022/09/27 12:37:33;;;;;;;0.88;0.70;;;9.10;36.80;;;;;;7348699;19;20019;-70
2022/09/27 12:40:25;;;;;;;2.47;0.80;;;8.90;35.00;;;;;;7360206;19;20015;-71
2022/09/27 12:42:58;;;;;;;0.80;0.70;;;9.10;39.00;;;;;;7359466;19;20387;-70
2022/09/27 12:45:41;;;;;;;1.27;0.80;;;8.80;35.40;;;;;;7380651;19;20581;-69
2022/09/27 12:48:20;;;;;;;2.10;0.80;;;9.10;40.60;;;;;;7347493;19;20026;-70
2022/09/27 12:50:52;;;;;;;0.73;0.65;;;9.20;42.20;;;;;;7358926;19;20014;-69
2022/09/27 12:53:29;;;;;;;3.25;0.90;;;9.20;40.70;;;;;;7358781;19;20066;-69
2022/09/27 12:56:18;;;;;;;1.35;0.65;;;9.20;39.10;;;;;;7358724;19;20014;-70
2022/09/27 12:59:35;;;;;;;2.40;2.20;;;9.10;37.70;;;;;;7351629;19;20046;-70
2022/09/27 13:02:27;;;;;;;2.65;1.10;;;9.10;39.40;;;;;;7356155;19;20018;-70
2022/09/27 13:05:24;;;;;;;1.02;0.85;;;9.10;39.70;;;;;;7364475;19;20015;-70
2022/09/27 13:08:19;;;;;;;2.80;1.20;;;9.00;38.00;;;;;;7353456;19;20015;-69
2022/09/27 13:11:03;;;;;;;3.13;1.10;;;9.00;40.60;;;;;;7365974;19;20018;-70
2022/09/27 13:13:34;;;;;;;2.08;1.40;;;8.80;38.80;;;;;;7365681;19;20070;-70
2022/09/27 13:16:06;;;;;;;3.72;1.35;;;8.80;39.70;;;;;;7364989;19;20041;-71
2022/09/27 13:18:54;;;;;;;2.72;1.40;;;8.80;41.10;;;;;;7377936;19;20011;-71
2022/09/27 13:21:54;;;;;;;3.22;1.73;;;8.80;42.80;;;;;;7365709;19;20346;-72
2022/09/27 13:24:42;;;;;;;5.47;1.50;;;8.70;43.60;;;;;;7364111;19;20007;-70
2022/09/27 13:27:43;;;;;;;3.38;1.15;;;8.90;45.50;;;;;;7354786;19;20002;-69
2022/09/27 13:30:48;;;;;;;3.08;1.30;;;8.80;44.70;;;;;;7365682;19;20457;-70
2022/09/27 13:33:42;;;;;;;2.47;1.48;;;8.90;44.80;;;;;;7366024;19;20017;-70
2022/09/27 13:36:33;;;;;;;1.98;1.17;;;9.00;46.60;;;;;;7363439;19;20038;-71
2022/09/27 13:39:20;;;;;;;2.92;1.50;;;9.00;46.70;;;;;;7360071;19;20011;-70
2022/09/27 13:42:29;;;;;;;3.83;1.50;;;9.10;47.00;;;;;;7368329;19;20011;-70
2022/09/27 13:45:30;;;;;;;1.30;1.00;;;9.20;46.20;;;;;;7364927;19;20022;-69